createdAt,value
2019-04-22T00:03:06.590Z,92.83
2019-04-22T00:13:43.543Z,105.07
2019-04-22T00:23:39.199Z,91.43
2019-04-22T00:33:45.094Z,99.07
2019-04-22T00:43:59.639Z,104.67
2019-04-22T00:54:03.395Z,103.23
2019-04-22T01:04:15.805Z,96.57
2019-04-22T01:14:12.553Z,95.27
2019-04-22T01:24:20.446Z,80.27
2019-04-22T01:34:19.783Z,88.70
2019-04-22T02:04:53.540Z,87.10
2019-04-22T02:15:13.169Z,95.10
2019-04-22T02:25:28.478Z,85.10
2019-04-22T02:35:23.856Z,94.60
2019-04-22T02:45:26.586Z,96.20
2019-04-22T02:55:27.576Z,88.57
2019-04-22T03:15:50.897Z,76.10
2019-04-22T03:36:25.052Z,57.60
2019-04-22T03:46:02.038Z,58.90
2019-04-22T03:56:49.583Z,73.13
2019-04-22T04:06:29.639Z,58.97
2019-04-22T04:16:36.877Z,65.10
2019-04-22T05:07:09.191Z,43.50
2019-04-22T05:17:15.978Z,52.73
2019-04-22T05:37:22.790Z,63.87
2019-04-22T05:47:26.179Z,50.33
2019-04-22T05:57:31.639Z,47.37
2019-04-22T06:07:40.326Z,51.50
2019-04-22T06:17:54.785Z,47.80
2019-04-22T06:27:58.832Z,44.33
2019-04-22T06:48:13.128Z,43.93
2019-04-22T06:58:15.270Z,35.53
2019-04-22T07:29:01.218Z,42.00
2019-04-22T07:39:35.441Z,43.67
2019-04-22T07:49:48.963Z,40.03
2019-04-22T08:00:02.912Z,42.60
2019-04-22T08:21:07.632Z,36.70
2019-04-22T08:31:18.029Z,37.80
2019-04-22T09:01:32.669Z,32.23
2019-04-22T09:11:52.946Z,26.30
2019-04-22T09:22:01.908Z,27.70
2019-04-22T09:42:14.523Z,26.17
2019-04-22T09:52:15.137Z,28.53
2019-04-22T10:12:37.029Z,34.17
2019-04-22T10:32:47.577Z,31.07
2019-04-22T10:42:33.493Z,26.93
2019-04-22T11:15:18.079Z,12.87
2019-04-22T11:25:12.019Z,9.63
2019-04-22T11:35:21.880Z,8.57
2019-04-22T11:45:28.774Z,8.73
2019-04-22T11:55:34.952Z,11.07
2019-04-22T12:05:41.685Z,9.37
2019-04-22T12:15:49.023Z,10.13
2019-04-22T12:26:02.073Z,8.13
2019-04-22T12:36:02.394Z,7.50
2019-04-22T12:46:08.370Z,8.10
2019-04-22T12:56:15.212Z,7.30
2019-04-22T13:06:23.645Z,9.93
2019-04-22T13:16:29.422Z,8.60
2019-04-22T13:26:35.947Z,11.07
2019-04-22T13:36:48.805Z,12.90
2019-04-22T13:47:11.047Z,10.57
2019-04-22T13:57:19.716Z,12.00
2019-04-22T14:07:10.481Z,3.67
2019-04-22T14:17:18.811Z,8.90
2019-04-22T14:27:34.679Z,5.67
2019-04-22T14:37:32.194Z,11.67
2019-04-22T14:48:07.122Z,6.53
2019-04-22T14:57:45.018Z,7.00
2019-04-22T15:07:50.511Z,7.07
2019-04-22T15:18:13.935Z,7.07
2019-04-22T15:28:19.725Z,5.90
2019-04-22T15:38:26.186Z,11.00
2019-04-22T15:48:37.769Z,8.43
2019-04-22T15:58:43.774Z,13.17
2019-04-22T16:08:49.848Z,11.13
2019-04-22T16:18:56.258Z,15.43
2019-04-22T16:29:03.226Z,11.57
2019-04-22T16:39:11.250Z,18.83
2019-04-22T16:49:17.217Z,6.97
2019-04-22T16:59:22.728Z,9.30
2019-04-22T17:09:29.765Z,11.77
2019-04-22T17:19:35.574Z,18.43
2019-04-22T17:29:41.289Z,16.00
2019-04-22T17:40:02.456Z,15.70
2019-04-22T17:50:24.206Z,18.67
2019-04-22T18:00:20.407Z,11.20
2019-04-22T18:10:35.642Z,33.90
2019-04-22T18:20:35.333Z,67.93
2019-04-22T18:30:38.675Z,23.40
2019-04-22T18:40:53.713Z,16.67
2019-04-22T18:51:20.285Z,17.00
2019-04-22T19:00:59.553Z,14.03
2019-04-22T19:11:35.574Z,19.43
2019-04-22T19:21:32.676Z,18.40
2019-04-22T19:31:45.498Z,17.13
2019-04-22T19:41:58.727Z,15.87
2019-04-22T19:52:12.825Z,18.37
2019-04-22T20:02:22.212Z,17.10
2019-04-22T20:12:30.571Z,20.07
2019-04-22T20:22:38.346Z,20.00
2019-04-22T20:32:44.523Z,16.97
2019-04-22T20:43:04.006Z,16.77
2019-04-22T20:53:06.892Z,20.03
2019-04-22T21:03:00.971Z,15.90
2019-04-22T21:13:15.577Z,16.33
2019-04-22T21:23:19.864Z,15.53
2019-04-22T21:33:26.966Z,17.47
2019-04-22T21:43:42.437Z,18.03
2019-04-22T21:53:58.694Z,13.07
2019-04-22T22:03:55.716Z,14.80
2019-04-22T22:14:01.927Z,15.30
2019-04-22T22:24:13.113Z,11.80
2019-04-22T22:34:16.618Z,15.07
2019-04-22T22:44:11.572Z,15.13
2019-04-22T22:54:30.065Z,12.60
2019-04-22T23:04:39.842Z,18.40
2019-04-22T23:14:44.107Z,12.63
2019-04-22T23:24:50.294Z,17.37
2019-04-22T23:35:03.185Z,12.90
2019-04-22T23:45:15.725Z,11.87
2019-04-22T23:55:21.589Z,11.90
